Albany, NY

3:14 AM EDT on October 31, 2014 (GMT -0400)
WNYT TV - Menands | Change Station
CLOSE
Current Station
Personal Weather Station
Location: 715 North Pearl Street Albany, NY
Elevation: 50 ft
Nearby Weather Stations

Elev 50 ft 42.68 °N, 73.74 °W | Updated 6 seconds ago

Clear
Clear
36.0 °F
Feels Like 36 °F
N
0.0
Wind Variable Wind from SSE
Gusts 0.0 mph

Today
High -- | Low -- °F
--% Chance of Precip.
Yesterday
High -- | Low -- °F
Precip. -- in
7:27 AM 5:49 PM
First Quarter, 52% visible
Pressure 30.05 in
Visibility 10.0 miles
Clouds Scattered Clouds 4700 ft
Windchill 36 °F
Dew Point 36 °F
Humidity 100%
Rainfall 0.00 in
Snow Depth Not available.
UV 0 out of 12
Pollen .60 out of 12
Air Quality Not available.
Flu Activity Not available.
METAR KALB 310651Z 00000KT 10SM SCT047 01/M01 A3004 RMK AO2 SLP174 T00061011

More Conditions Fewer Conditions

Pressure 30.05 in
Visibility 10.0 miles
Clouds Scattered Clouds 4700 ft
Windchill 36 °F
Dew Point 36 °F
Humidity 100%
Rainfall 0.00 in
Snow Depth Not available.
UV 0 out of 12
Pollen .60 out of 12
Air Quality Not available.
Flu Activity Not available.
METAR KALB 310651Z 00000KT 10SM SCT047 01/M01 A3004 RMK AO2 SLP174 T00061011

More Conditions Fewer Conditions

10-Day Weather Forecast

Almanac

Astronomy

Oct. 31, 2014 Rise Set
Actual Time
Civil Twilight
Nautical Twilight
Astronomical Twilight
Moon
Length of Visible Light
Length of Day
Tomorrow will be .
, % of the Moon is Illuminated

Today's Extremes

State Highs State Lows

Community

WunderPhotos

Upload Photos

1,766,571 photos uploaded!

WunderBlogs® & News

Nearby

Air Quality

  Air Quality AQ Index Pollutant
Not available.

Snow Depth

Station Depth Elevation

Earthquake Activity

City Distance Mag. Time & Date
Minimum magnitude displayed is 2.5.

Coastal Water Temperatures

Place Temperature

Nearby Weather Stations